Time;durP1;ratioP1;P1;durP2;ratioP2;P2;SDS_P1;SDS_P2;PMS_P1;PMS_P2;Temp;Humidity;BMP_temperature;BMP_pressure;BME280_temperature;BME280_humidity;BME280_pressure;Samples;Min_cycle;Max_cycle;Signal;HPM_P1;HPM_P2
2022/12/09 00:01:11;;;;;;;;;;;4.90;99.90;;;;;;4955611;28;19968;-77
2022/12/09 00:03:38;;;;;;;;;;;4.90;99.90;;;;;;4971441;28;19933;-77
2022/12/09 00:06:06;;;;;;;;;;;4.90;99.90;;;;;;4961066;28;19929;-76
2022/12/09 00:08:33;;;;;;;;;;;4.80;99.90;;;;;;4959856;28;19930;-78
2022/12/09 00:11:00;;;;;;;;;;;4.80;99.90;;;;;;4957396;28;20006;-77
2022/12/09 00:13:28;;;;;;;;;;;4.80;99.90;;;;;;4976013;28;19930;-78
2022/12/09 00:15:56;;;;;;;;;;;4.80;99.90;;;;;;4958044;28;19930;-77
2022/12/09 00:18:23;;;;;;;;;;;4.80;99.90;;;;;;4958987;28;19929;-77
2022/12/09 00:20:53;;;;;;;;;;;4.80;99.90;;;;;;4977461;28;19926;-77
2022/12/09 00:23:20;;;;;;;;;;;4.80;99.90;;;;;;4957480;28;19934;-77
2022/12/09 00:25:47;;;;;;;;;;;4.90;99.90;;;;;;4954832;28;20327;-77
2022/12/09 00:28:14;;;;;;;;;;;4.90;99.90;;;;;;4971861;28;19930;-77
2022/12/09 00:30:41;;;;;;;;;;;4.90;99.90;;;;;;4973161;28;19930;-77
2022/12/09 00:33:11;;;;;;;;;;;5.00;99.90;;;;;;4955637;28;19934;-77
2022/12/09 00:35:38;;;;;;;;;;;4.90;99.90;;;;;;4984852;28;19958;-77
2022/12/09 00:38:05;;;;;;;;;;;5.00;99.90;;;;;;4955335;28;20672;-77
2022/12/09 00:40:32;;;;;;;;;;;5.00;99.90;;;;;;4981389;28;19934;-77
2022/12/09 00:42:59;;;;;;;;;;;4.90;99.90;;;;;;4954742;28;20372;-77
2022/12/09 00:45:27;;;;;;;;;;;4.90;99.90;;;;;;4955662;28;19930;-77
2022/12/09 00:47:54;;;;;;;;;;;4.90;99.90;;;;;;4961772;28;19933;-77
2022/12/09 00:50:25;;;;;;;;;;;4.90;99.90;;;;;;4980961;28;19933;-77
2022/12/09 00:52:52;;;;;;;;;;;4.90;99.90;;;;;;4962300;28;19957;-77
2022/12/09 00:55:19;;;;;;;;;;;4.90;99.90;;;;;;4955149;28;19926;-77
2022/12/09 00:57:46;;;;;;;;;;;4.90;99.90;;;;;;4955544;28;20422;-76
2022/12/09 01:00:13;;;;;;;;;;;4.90;99.90;;;;;;4980153;28;19957;-76
2022/12/09 01:02:43;;;;;;;;;;;4.90;99.90;;;;;;4973826;28;19930;-77
2022/12/09 01:05:10;;;;;;;;;;;4.80;99.90;;;;;;4969208;28;19930;-77
2022/12/09 01:07:38;;;;;;;;;;;4.80;99.90;;;;;;4955878;28;19930;-76
2022/12/09 01:10:06;;;;;;;;;;;4.90;99.90;;;;;;4964665;28;20339;-77
2022/12/09 01:12:33;;;;;;;;;;;4.80;99.90;;;;;;4959479;28;19960;-78
2022/12/09 01:15:00;;;;;;;;;;;4.90;99.90;;;;;;4965057;28;20276;-76
2022/12/09 01:17:27;;;;;;;;;;;4.90;99.90;;;;;;4985324;28;19933;-77
2022/12/09 01:19:55;;;;;;;;;;;4.90;99.90;;;;;;4968759;28;19962;-77
2022/12/09 01:22:22;;;;;;;;;;;4.90;99.90;;;;;;4984354;28;19976;-77
2022/12/09 01:24:51;;;;;;;;;;;4.90;99.90;;;;;;4974904;28;19926;-78
2022/12/09 01:27:18;;;;;;;;;;;4.90;99.90;;;;;;4970680;28;19938;-77
2022/12/09 01:29:45;;;;;;;;;;;4.90;99.90;;;;;;4985340;28;20281;-76
2022/12/09 01:32:11;;;;;;;;;;;4.90;99.90;;;;;;4968010;28;20368;-76
2022/12/09 01:34:39;;;;;;;;;;;4.90;99.90;;;;;;4958711;28;19954;-76
2022/12/09 01:37:07;;;;;;;;;;;;;;;;;;4956910;28;19926;-76
2022/12/09 01:39:35;;;;;;;;;;;4.90;99.90;;;;;;4959168;28;19940;-76
2022/12/09 01:42:04;;;;;;;;;;;4.90;99.90;;;;;;4962792;28;20309;-77
2022/12/09 01:44:33;;;;;;;;;;;4.90;99.90;;;;;;4965888;28;19940;-76
2022/12/09 01:47:00;;;;;;;;;;;4.90;99.90;;;;;;4958796;28;19934;-76
2022/12/09 01:49:28;;;;;;;;;;;4.80;99.90;;;;;;4958496;28;19930;-76
2022/12/09 01:52:02;;;;;;;;;;;4.80;99.90;;;;;;4967843;28;19937;-77
2022/12/09 01:54:30;;;;;;;;;;;4.80;99.90;;;;;;4957189;28;19930;-77
2022/12/09 01:56:58;;;;;;;;;;;4.80;99.90;;;;;;4959935;28;19949;-77
2022/12/09 01:59:27;;;;;;;;;;;4.80;99.90;;;;;;4958777;28;19934;-77
2022/12/09 02:01:56;;;;;;;;;;;4.70;99.90;;;;;;4974343;28;19926;-78
2022/12/09 02:04:23;;;;;;;;;;;4.70;99.90;;;;;;4966260;28;19977;-77
2022/12/09 02:06:50;;;;;;;;;;;4.70;99.90;;;;;;4967260;28;19926;-78
2022/12/09 02:09:19;;;;;;;;;;;4.70;99.90;;;;;;4958496;28;19930;-77
2022/12/09 02:11:53;;;;;;;;;;;4.70;99.90;;;;;;4958724;28;19931;-78
2022/12/09 02:14:24;;;;;;;;;;;4.70;99.90;;;;;;4958320;28;20043;-77
2022/12/09 02:17:05;;;;;;;;;;;4.70;99.90;;;;;;4959686;28;19931;-77
2022/12/09 02:19:43;;;;;;;;;;;4.70;99.90;;;;;;4958448;28;19934;-77
2022/12/09 02:22:12;;;;;;;;;;;4.70;99.90;;;;;;4955224;28;20323;-77
2022/12/09 02:24:42;;;;;;;;;;;4.60;99.90;;;;;;4969777;28;19931;-77
2022/12/09 02:27:13;;;;;;;;;;;4.60;99.90;;;;;;4952999;28;19926;-77
2022/12/09 02:29:51;;;;;;;;;;;4.60;99.90;;;;;;4966283;28;20032;-77
2022/12/09 02:32:45;;;;;;;;;;;4.50;99.90;;;;;;4966069;28;20404;-76
2022/12/09 02:35:19;;;;;;;;;;;4.50;99.90;;;;;;4943663;28;19937;-76
2022/12/09 02:37:50;;;;;;;;;;;5.20;99.90;;;;;;4941109;28;20276;-77
2022/12/09 02:40:18;;;;;;;;;;;4.50;99.90;;;;;;4959185;28;20362;-77
2022/12/09 02:42:46;;;;;;;;;;;4.50;99.90;;;;;;4967333;28;20031;-77
2022/12/09 02:45:13;;;;;;;;;;;4.50;99.90;;;;;;4970542;28;20408;-77
2022/12/09 02:47:45;;;;;;;;;;;4.50;99.90;;;;;;4956896;28;19957;-77
2022/12/09 02:50:15;;;;;;;;;;;4.40;99.90;;;;;;4960512;28;19930;-78
2022/12/09 02:52:51;;;;;;;;;;;4.40;99.90;;;;;;4965919;28;19949;-77
2022/12/09 02:55:20;;;;;;;;;;;4.40;99.90;;;;;;4960303;28;20020;-77
2022/12/09 02:57:50;;;;;;;;;;;4.40;99.90;;;;;;4956975;28;19977;-78
2022/12/09 03:00:17;;;;;;;;;;;4.30;99.90;;;;;;4955433;28;19926;-77
2022/12/09 03:02:47;;;;;;;;;;;4.30;99.90;;;;;;4957269;28;19930;-78
2022/12/09 03:05:20;;;;;;;;;;;4.20;99.90;;;;;;4973093;28;19930;-77
2022/12/09 03:07:52;;;;;;;;;;;4.30;99.90;;;;;;4957042;28;19937;-78
2022/12/09 03:10:22;;;;;;;;;;;5.80;99.90;;;;;;4974398;28;19927;-78
2022/12/09 03:12:51;;;;;;;;;;;4.40;99.90;;;;;;4958036;28;19930;-78
2022/12/09 03:15:22;;;;;;;;;;;4.40;99.90;;;;;;4971355;28;19926;-78
2022/12/09 03:17:51;;;;;;;;;;;4.40;99.90;;;;;;4966536;28;19932;-79
2022/12/09 03:20:22;;;;;;;;;;;4.40;99.90;;;;;;4962951;28;19973;-78
2022/12/09 03:22:52;;;;;;;;;;;4.50;99.90;;;;;;4970750;28;19930;-79
2022/12/09 03:25:21;;;;;;;;;;;4.50;99.90;;;;;;4961971;28;19957;-79
2022/12/09 03:27:50;;;;;;;;;;;4.50;99.90;;;;;;4967160;28;19930;-79
2022/12/09 03:30:18;;;;;;;;;;;4.50;99.90;;;;;;4966928;28;20175;-79
2022/12/09 03:32:46;;;;;;;;;;;4.50;99.90;;;;;;4958317;28;19992;-78
2022/12/09 03:35:15;;;;;;;;;;;4.60;99.90;;;;;;4962876;28;19937;-78
2022/12/09 03:37:44;;;;;;;;;;;4.60;99.90;;;;;;4964317;28;20399;-78
2022/12/09 03:40:14;;;;;;;;;;;4.60;99.90;;;;;;4968999;28;19936;-78
2022/12/09 03:42:44;;;;;;;;;;;4.60;99.90;;;;;;4963919;28;19933;-78
2022/12/09 03:45:12;;;;;;;;;;;4.60;99.90;;;;;;4960669;28;19930;-79
2022/12/09 03:47:39;;;;;;;;;;;4.60;99.90;;;;;;4975558;28;19930;-79
2022/12/09 03:50:07;;;;;;;;;;;4.50;99.90;;;;;;4980976;28;19926;-78
2022/12/09 03:52:36;;;;;;;;;;;4.50;99.90;;;;;;4969797;28;19940;-78
2022/12/09 03:55:07;;;;;;;;;;;4.60;99.90;;;;;;4960025;28;19961;-79
2022/12/09 03:57:36;;;;;;;;;;;4.60;99.90;;;;;;4985732;28;19936;-79
2022/12/09 04:00:05;;;;;;;;;;;4.60;99.90;;;;;;4983478;28;20058;-78
2022/12/09 04:02:39;;;;;;;;;;;4.60;99.90;;;;;;4974532;28;20024;-78
2022/12/09 04:05:07;;;;;;;;;;;4.50;99.90;;;;;;4960119;28;20036;-79
2022/12/09 04:07:34;;;;;;;;;;;4.50;99.90;;;;;;4959660;28;19930;-78
2022/12/09 04:10:01;;;;;;;;;;;4.50;99.90;;;;;;4962043;28;19941;-78
2022/12/09 04:12:28;;;;;;;;;;;4.50;99.90;;;;;;4971604;28;19926;-79
2022/12/09 04:14:56;;;;;;;;;;;4.50;99.90;;;;;;4962943;28;19930;-78
2022/12/09 04:17:23;;;;;;;;;;;4.40;99.90;;;;;;4956926;28;20194;-78
2022/12/09 04:19:50;;;;;;;;;;;4.40;99.90;;;;;;4958653;28;19972;-79
2022/12/09 04:22:17;;;;;;;;;;;4.30;99.90;;;;;;4975424;28;19978;-78
2022/12/09 04:24:44;;;;;;;;;;;4.30;99.90;;;;;;4964042;28;19934;-78
2022/12/09 04:27:11;;;;;;;;;;;4.30;99.90;;;;;;4961981;28;19941;-78
2022/12/09 04:29:39;;;;;;;;;;;4.30;99.90;;;;;;4967100;28;20057;-78
2022/12/09 04:32:08;;;;;;;;;;;4.30;99.90;;;;;;4981013;28;19973;-79
2022/12/09 04:34:35;;;;;;;;;;;4.30;99.90;;;;;;4976267;28;20450;-76
2022/12/09 04:37:01;;;;;;;;;;;4.20;99.90;;;;;;4968166;28;19930;-77
2022/12/09 04:39:29;;;;;;;;;;;4.20;99.90;;;;;;4957582;28;19926;-77
2022/12/09 04:41:56;;;;;;;;;;;4.20;99.90;;;;;;4957088;28;19934;-80
2022/12/09 04:44:23;;;;;;;;;;;4.20;99.90;;;;;;4963712;28;20433;-78
2022/12/09 04:46:50;;;;;;;;;;;4.20;99.90;;;;;;4971999;28;19930;-77
2022/12/09 04:49:18;;;;;;;;;;;4.10;99.90;;;;;;4963104;28;19926;-78
2022/12/09 04:51:45;;;;;;;;;;;4.10;99.90;;;;;;4959853;28;19926;-78
2022/12/09 04:54:12;;;;;;;;;;;4.10;99.90;;;;;;4977943;28;19965;-78
2022/12/09 04:56:40;;;;;;;;;;;4.00;99.90;;;;;;4968072;28;19933;-78
2022/12/09 04:59:07;;;;;;;;;;;3.90;99.90;;;;;;4969479;28;19948;-76
2022/12/09 05:01:34;;;;;;;;;;;3.80;99.90;;;;;;4960137;28;19969;-76
2022/12/09 05:04:01;;;;;;;;;;;3.80;99.90;;;;;;4980449;28;19977;-78
2022/12/09 05:06:29;;;;;;;;;;;3.80;99.90;;;;;;4977544;28;19930;-78
2022/12/09 05:08:56;;;;;;;;;;;3.80;99.90;;;;;;4958622;28;20330;-78
2022/12/09 05:11:23;;;;;;;;;;;3.70;99.90;;;;;;4959502;28;20246;-79
2022/12/09 05:13:50;;;;;;;;;;;3.70;99.90;;;;;;4963206;28;19930;-79
2022/12/09 05:16:18;;;;;;;;;;;3.70;99.90;;;;;;4961789;28;19932;-79
2022/12/09 05:18:46;;;;;;;;;;;3.70;99.90;;;;;;4975421;28;19973;-78
2022/12/09 05:21:14;;;;;;;;;;;3.60;99.90;;;;;;4980117;28;19934;-77
2022/12/09 05:23:43;;;;;;;;;;;3.60;99.90;;;;;;4978578;28;19926;-79
2022/12/09 05:26:14;;;;;;;;;;;3.60;99.90;;;;;;4969502;28;20245;-79
2022/12/09 05:28:41;;;;;;;;;;;3.60;99.90;;;;;;4988140;28;19945;-78
2022/12/09 05:31:09;;;;;;;;;;;3.60;99.90;;;;;;4979428;28;20386;-78
2022/12/09 05:33:37;;;;;;;;;;;3.70;99.90;;;;;;4972272;28;20070;-78
2022/12/09 05:36:04;;;;;;;;;;;3.70;99.90;;;;;;4979967;28;19940;-77
2022/12/09 05:38:31;;;;;;;;;;;3.80;99.90;;;;;;4962033;28;19938;-78
2022/12/09 05:41:00;;;;;;;;;;;3.80;99.90;;;;;;4967085;28;19930;-79
2022/12/09 05:43:27;;;;;;;;;;;3.80;99.90;;;;;;4963654;28;20020;-78
2022/12/09 05:45:56;;;;;;;;;;;3.90;99.90;;;;;;4963588;28;20237;-77
2022/12/09 05:48:23;;;;;;;;;;;3.90;99.90;;;;;;4966061;28;20311;-77
2022/12/09 05:50:56;;;;;;;;;;;3.90;99.90;;;;;;4972097;28;20504;-78
2022/12/09 05:53:23;;;;;;;;;;;4.00;99.90;;;;;;4960888;28;20382;-78
2022/12/09 05:55:50;;;;;;;;;;;4.00;99.90;;;;;;4967612;28;19927;-78
2022/12/09 05:58:18;;;;;;;;;;;4.00;99.90;;;;;;4958848;28;19931;-77
2022/12/09 06:00:46;;;;;;;;;;;4.00;99.90;;;;;;4957749;28;19933;-76
2022/12/09 06:03:13;;;;;;;;;;;4.00;99.90;;;;;;4959109;28;19930;-77
2022/12/09 06:05:40;;;;;;;;;;;4.00;99.90;;;;;;4960641;28;20032;-78
2022/12/09 06:08:07;;;;;;;;;;;3.90;99.90;;;;;;4964262;28;20002;-80
2022/12/09 06:10:34;;;;;;;;;;;4.00;99.90;;;;;;4964331;28;19934;-80
2022/12/09 06:13:03;;;;;;;;;;;4.00;99.90;;;;;;4962689;28;19952;-82
2022/12/09 06:15:32;;;;;;;;;;;4.00;99.90;;;;;;4962669;28;20347;-79
2022/12/09 06:17:59;;;;;;;;;;;4.00;99.90;;;;;;4961762;28;20315;-80
2022/12/09 06:20:27;;;;;;;;;;;4.10;99.90;;;;;;4960713;28;19926;-81
2022/12/09 06:22:54;;;;;;;;;;;4.10;99.90;;;;;;4981613;28;19936;-80
2022/12/09 06:25:21;;;;;;;;;;;4.10;99.90;;;;;;4962687;28;19927;-80
2022/12/09 06:27:48;;;;;;;;;;;4.10;99.90;;;;;;4966096;28;19965;-79
2022/12/09 06:30:20;;;;;;;;;;;4.10;99.90;;;;;;4963516;28;20423;-79
2022/12/09 06:32:51;;;;;;;;;;;4.00;99.90;;;;;;4960386;28;19930;-79
2022/12/09 06:35:38;;;;;;;;;;;4.00;99.90;;;;;;4957438;28;20033;-78
2022/12/09 06:38:15;;;;;;;;;;;3.90;99.90;;;;;;4955698;28;20422;-80
2022/12/09 06:40:53;;;;;;;;;;;3.90;99.90;;;;;;4962648;28;20293;-78
2022/12/09 06:43:28;;;;;;;;;;;3.80;99.90;;;;;;4960014;28;19930;-78
2022/12/09 06:46:00;;;;;;;;;;;3.80;99.90;;;;;;4972903;28;19930;-77
2022/12/09 06:48:34;;;;;;;;;;;3.70;99.90;;;;;;4970011;28;19937;-78
2022/12/09 06:51:03;;;;;;;;;;;3.70;99.90;;;;;;4979065;28;19930;-78
2022/12/09 06:53:30;;;;;;;;;;;3.60;99.90;;;;;;4949193;28;19930;-78
2022/12/09 06:56:01;;;;;;;;;;;3.60;99.90;;;;;;4957813;28;20025;-78
2022/12/09 06:58:38;;;;;;;;;;;3.60;99.90;;;;;;4956747;28;19930;-77
2022/12/09 07:01:07;;;;;;;;;;;3.40;99.90;;;;;;4956555;28;19930;-78
2022/12/09 07:03:42;;;;;;;;;;;3.30;99.90;;;;;;4975347;28;19958;-78
2022/12/09 07:06:16;;;;;;;;;;;3.20;99.90;;;;;;4973296;28;20013;-80
2022/12/09 07:08:47;;;;;;;;;;;3.10;99.90;;;;;;4960651;28;19926;-78
2022/12/09 07:11:14;;;;;;;;;;;3.80;99.90;;;;;;4950518;28;19934;-78
2022/12/09 07:13:41;;;;;;;;;;;2.70;99.90;;;;;;4950740;28;19934;-77
2022/12/09 07:16:08;;;;;;;;;;;2.50;99.90;;;;;;4956702;28;19968;-78
2022/12/09 07:18:35;;;;;;;;;;;2.40;99.90;;;;;;4959617;28;19926;-77
2022/12/09 07:21:07;;;;;;;;;;;2.20;99.90;;;;;;4978471;28;21563;-75
2022/12/09 07:23:35;;;;;;;;;;;2.10;99.90;;;;;;4961602;28;19966;-74
2022/12/09 07:26:04;;;;;;;;;;;2.00;99.90;;;;;;4962347;28;19945;-75
2022/12/09 07:28:31;;;;;;;;;;;2.00;99.90;;;;;;4961427;28;19930;-76
2022/12/09 07:30:59;;;;;;;;;;;1.90;99.90;;;;;;4960814;28;19930;-76
2022/12/09 07:33:26;;;;;;;;;;;1.80;99.90;;;;;;4973881;28;19925;-76
2022/12/09 07:35:54;;;;;;;;;;;1.70;99.90;;;;;;4962484;28;19930;-78
2022/12/09 07:38:22;;;;;;;;;;;1.60;99.90;;;;;;4958619;28;19965;-77
2022/12/09 07:40:49;;;;;;;;;;;1.60;99.90;;;;;;4968313;28;19936;-75
2022/12/09 07:43:17;;;;;;;;;;;1.50;99.90;;;;;;4979096;28;20747;-76
2022/12/09 07:45:44;;;;;;;;;;;1.40;99.90;;;;;;4981027;28;19926;-76
2022/12/09 07:48:12;;;;;;;;;;;1.40;99.90;;;;;;4982900;28;20025;-78
2022/12/09 07:50:39;;;;;;;;;;;1.40;99.90;;;;;;4969093;28;19926;-79
2022/12/09 07:53:06;;;;;;;;;;;1.30;99.90;;;;;;4978792;28;20082;-79
2022/12/09 07:55:35;;;;;;;;;;;1.20;99.90;;;;;;4978696;28;19930;-81
2022/12/09 07:58:03;;;;;;;;;;;1.20;99.90;;;;;;4981516;28;19930;-78
2022/12/09 08:00:30;;;;;;;;;;;1.20;99.90;;;;;;4964357;28;19933;-78
2022/12/09 08:02:57;;;;;;;;;;;1.10;99.90;;;;;;4971873;28;19930;-77
2022/12/09 08:05:24;;;;;;;;;;;1.20;99.90;;;;;;4963976;28;19934;-78
2022/12/09 08:07:52;;;;;;;;;;;1.30;99.90;;;;;;4967658;28;19930;-82
2022/12/09 08:10:21;;;;;;;;;;;1.30;99.90;;;;;;4973805;28;19930;-76
2022/12/09 08:12:50;;;;;;;;;;;1.50;99.90;;;;;;4976986;28;19981;-77
2022/12/09 08:15:18;;;;;;;;;;;1.60;99.90;;;;;;4983900;28;20283;-77
2022/12/09 08:17:46;;;;;;;;;;;1.80;99.90;;;;;;4969176;28;19961;-76
2022/12/09 08:20:13;;;;;;;;;;;1.90;99.90;;;;;;4971694;28;20407;-79
2022/12/09 08:22:42;;;;;;;;;;;2.00;99.90;;;;;;4981952;28;20020;-79
2022/12/09 08:25:10;;;;;;;;;;;2.10;99.90;;;;;;4966418;28;19937;-77
2022/12/09 08:27:38;;;;;;;;;;;2.20;99.90;;;;;;4977671;28;20391;-78
2022/12/09 08:30:08;;;;;;;;;;;2.40;99.90;;;;;;4980001;28;19927;-78
2022/12/09 08:32:35;;;;;;;;;;;2.60;99.90;;;;;;4979953;28;20315;-78
2022/12/09 08:35:15;;;;;;;;;;;2.10;99.90;;;;;;4961211;28;19926;-78
2022/12/09 08:37:42;;;;;;;;;;;2.80;99.90;;;;;;4968568;28;19977;-78
2022/12/09 08:40:10;;;;;;;;;;;2.90;99.90;;;;;;4979035;28;19930;-78
2022/12/09 08:42:38;;;;;;;;;;;3.10;99.90;;;;;;4969585;28;20449;-78
2022/12/09 08:45:07;;;;;;;;;;;3.90;99.90;;;;;;4990046;28;19925;-78
2022/12/09 08:47:34;;;;;;;;;;;3.20;99.90;;;;;;4984601;28;20431;-78
2022/12/09 08:50:02;;;;;;;;;;;3.30;99.90;;;;;;4991323;28;20082;-79
2022/12/09 08:52:29;;;;;;;;;;;3.50;99.90;;;;;;4967227;28;19926;-79
2022/12/09 08:54:56;;;;;;;;;;;3.50;99.90;;;;;;4964576;28;19938;-77
2022/12/09 08:57:27;;;;;;;;;;;3.60;99.90;;;;;;4982998;28;20363;-78
2022/12/09 08:59:56;;;;;;;;;;;3.60;99.90;;;;;;4967958;28;19930;-77
2022/12/09 09:02:25;;;;;;;;;;;3.70;99.90;;;;;;4983193;28;19933;-78
2022/12/09 09:04:53;;;;;;;;;;;3.80;99.90;;;;;;4991045;28;19984;-78
2022/12/09 09:07:21;;;;;;;;;;;4.00;99.90;;;;;;4971788;28;19925;-77
2022/12/09 09:09:48;;;;;;;;;;;4.00;99.90;;;;;;4984253;28;19994;-78
2022/12/09 09:12:15;;;;;;;;;;;4.10;99.90;;;;;;4960943;28;19981;-79
2022/12/09 09:14:42;;;;;;;;;;;4.20;99.90;;;;;;4967711;28;19980;-79
2022/12/09 09:17:09;;;;;;;;;;;4.20;99.90;;;;;;4962129;28;20311;-79
2022/12/09 09:19:37;;;;;;;;;;;4.30;99.90;;;;;;4960426;28;19940;-79
2022/12/09 09:22:04;;;;;;;;;;;4.30;99.90;;;;;;4969805;28;20303;-79
2022/12/09 09:24:31;;;;;;;;;;;4.40;99.90;;;;;;4980913;28;19930;-78
2022/12/09 09:26:58;;;;;;;;;;;5.80;99.90;;;;;;4963136;28;20406;-79
2022/12/09 09:29:25;;;;;;;;;;;4.50;99.90;;;;;;4982669;28;19964;-79
2022/12/09 09:31:53;;;;;;;;;;;4.60;99.90;;;;;;4960626;28;20525;-78
2022/12/09 09:34:21;;;;;;;;;;;4.60;99.90;;;;;;4962762;28;19934;-79
2022/12/09 09:36:50;;;;;;;;;;;4.70;99.90;;;;;;4965870;28;19981;-81
2022/12/09 09:39:17;;;;;;;;;;;4.70;99.90;;;;;;4967495;28;20350;-79
2022/12/09 09:41:52;;;;;;;;;;;4.80;99.90;;;;;;4963478;28;19930;-77
2022/12/09 09:44:22;;;;;;;;;;;4.80;99.90;;;;;;4967384;28;19941;-78
2022/12/09 09:46:50;;;;;;;;;;;4.90;99.90;;;;;;4963122;28;19936;-79
2022/12/09 09:49:19;;;;;;;;;;;5.00;99.90;;;;;;4961775;28;20446;-81
2022/12/09 09:51:46;;;;;;;;;;;5.00;99.90;;;;;;4977335;28;19934;-78
2022/12/09 09:54:15;;;;;;;;;;;5.10;99.90;;;;;;4967123;28;19929;-79
2022/12/09 09:56:45;;;;;;;;;;;5.20;99.90;;;;;;4976495;28;19926;-78
2022/12/09 09:59:20;;;;;;;;;;;5.20;99.90;;;;;;4959501;28;19934;-78
2022/12/09 10:01:51;;;;;;;;;;;5.20;99.90;;;;;;4967745;28;19926;-76
2022/12/09 10:04:20;;;;;;;;;;;5.20;99.90;;;;;;4971332;28;20347;-77
2022/12/09 10:06:50;;;;;;;;;;;5.20;99.90;;;;;;4954601;28;20697;-79
2022/12/09 10:09:22;;;;;;;;;;;5.20;99.90;;;;;;4989977;28;20017;-78
2022/12/09 10:11:55;;;;;;;;;;;5.30;99.90;;;;;;4969706;28;20000;-77
2022/12/09 10:14:28;;;;;;;;;;;5.30;99.90;;;;;;4963467;28;20400;-80
2022/12/09 10:16:59;;;;;;;;;;;5.40;99.90;;;;;;4980695;28;20000;-77
2022/12/09 10:19:28;;;;;;;;;;;5.40;99.90;;;;;;4963414;28;19932;-77
2022/12/09 10:21:56;;;;;;;;;;;5.40;99.90;;;;;;4969813;28;19930;-76
2022/12/09 10:24:26;;;;;;;;;;;5.50;99.90;;;;;;4959803;28;19926;-77
2022/12/09 10:27:03;;;;;;;;;;;5.50;99.90;;;;;;4974254;28;19937;-77
2022/12/09 10:29:42;;;;;;;;;;;5.60;99.90;;;;;;4962307;28;20038;-78
2022/12/09 10:32:13;;;;;;;;;;;5.70;99.90;;;;;;4974301;28;19930;-75
2022/12/09 10:34:41;;;;;;;;;;;5.80;99.90;;;;;;4957466;28;19934;-75
2022/12/09 10:37:10;;;;;;;;;;;5.90;99.90;;;;;;4966750;28;19933;-75
2022/12/09 10:39:39;;;;;;;;;;;6.00;99.90;;;;;;4969325;28;19930;-75
2022/12/09 10:45:03;;;;;;;;;;;6.00;99.90;;;;;;4958884;28;19928;-76
2022/12/09 10:47:30;;;;;;;;;;;6.00;99.90;;;;;;4964996;28;19937;-76
2022/12/09 10:49:58;;;;;;;;;;;6.00;99.90;;;;;;4952903;28;19926;-76
2022/12/09 10:52:27;;;;;;;;;;;6.00;99.90;;;;;;4955196;28;20150;-76
2022/12/09 10:54:56;;;;;;;;;;;6.10;99.90;;;;;;4956586;28;20686;-76
2022/12/09 10:57:24;;;;;;;;;;;6.20;99.90;;;;;;4959043;28;20426;-76
2022/12/09 10:59:59;;;;;;;;;;;6.10;99.90;;;;;;4972422;28;19977;-76
2022/12/09 11:02:28;;;;;;;;;;;6.10;99.90;;;;;;4958238;28;19933;-76
2022/12/09 11:04:55;;;;;;;;;;;6.20;99.90;;;;;;4975029;28;20064;-76
2022/12/09 11:07:24;;;;;;;;;;;6.30;99.90;;;;;;4975323;28;19952;-76
2022/12/09 11:10:02;;;;;;;;;;;6.30;99.90;;;;;;4972000;28;19957;-76
2022/12/09 11:12:32;;;;;;;;;;;6.30;99.90;;;;;;4956560;28;19926;-76
2022/12/09 11:15:01;;;;;;;;;;;6.20;99.90;;;;;;4961844;28;19929;-76
2022/12/09 11:17:29;;;;;;;;;;;6.20;99.90;;;;;;4971009;28;20319;-76
2022/12/09 11:20:08;;;;;;;;;;;6.30;99.90;;;;;;4958642;28;20339;-76
2022/12/09 11:22:37;;;;;;;;;;;6.30;99.90;;;;;;4954050;28;19950;-76
2022/12/09 11:25:17;;;;;;;;;;;6.30;99.90;;;;;;4956930;28;20364;-75
2022/12/09 11:27:50;;;;;;;;;;;6.20;99.90;;;;;;4971677;28;19930;-75
2022/12/09 11:30:18;;;;;;;;;;;6.20;99.90;;;;;;4945601;28;19930;-76
2022/12/09 11:32:54;;;;;;;;;;;6.20;99.90;;;;;;4970587;28;19933;-76
2022/12/09 11:35:24;;;;;;;;;;;6.10;99.90;;;;;;4952268;28;20050;-77
2022/12/09 11:37:51;;;;;;;;;;;5.90;99.90;;;;;;4957831;28;19930;-77
2022/12/09 11:40:19;;;;;;;;;;;5.70;99.90;;;;;;4964208;28;19934;-77
2022/12/09 11:42:51;;;;;;;;;;;5.60;99.90;;;;;;4968217;28;19930;-76
2022/12/09 11:45:19;;;;;;;;;;;5.60;99.90;;;;;;4978453;28;19936;-77
2022/12/09 11:47:47;;;;;;;;;;;5.70;99.90;;;;;;4962299;28;19937;-77
2022/12/09 11:50:17;;;;;;;;;;;5.80;99.90;;;;;;4971782;28;19930;-77
2022/12/09 11:52:45;;;;;;;;;;;6.00;99.90;;;;;;4978485;28;20013;-77
2022/12/09 11:55:15;;;;;;;;;;;6.10;99.90;;;;;;4956588;28;19926;-77
2022/12/09 11:57:45;;;;;;;;;;;6.30;99.90;;;;;;4957914;28;20367;-77
2022/12/09 12:00:22;;;;;;;;;;;6.50;99.90;;;;;;4956787;28;19927;-77
2022/12/09 12:02:53;;;;;;;;;;;6.60;99.90;;;;;;4964866;28;20376;-77
2022/12/09 12:05:22;;;;;;;;;;;6.60;99.90;;;;;;4967857;28;19934;-77
2022/12/09 12:07:52;;;;;;;;;;;6.60;99.90;;;;;;4954123;28;19934;-77
2022/12/09 12:10:23;;;;;;;;;;;6.70;99.90;;;;;;4953377;28;19941;-77
2022/12/09 12:12:54;;;;;;;;;;;6.70;99.90;;;;;;4950495;28;19961;-77
2022/12/09 12:15:26;;;;;;;;;;;6.60;99.90;;;;;;4976715;28;19926;-79
2022/12/09 12:17:55;;;;;;;;;;;6.70;99.90;;;;;;4959776;28;19938;-80
2022/12/09 12:20:25;;;;;;;;;;;6.80;99.90;;;;;;4960061;28;19946;-80
2022/12/09 12:23:01;;;;;;;;;;;6.90;99.90;;;;;;4959173;28;19937;-78
2022/12/09 12:25:38;;;;;;;;;;;6.80;99.90;;;;;;4974902;28;19930;-78
2022/12/09 12:28:14;;;;;;;;;;;6.70;99.90;;;;;;4959749;28;19930;-79
2022/12/09 12:30:47;;;;;;;;;;;6.70;99.90;;;;;;4963105;28;20388;-77
2022/12/09 12:33:35;;;;;;;;;;;6.80;99.90;;;;;;4961457;28;20018;-79
2022/12/09 12:36:06;;;;;;;;;;;6.80;99.90;;;;;;4960732;28;20479;-79
2022/12/09 12:38:41;;;;;;;;;;;6.60;99.90;;;;;;4971469;28;19934;-80
2022/12/09 12:41:11;;;;;;;;;;;6.60;99.90;;;;;;4975011;28;19948;-78
2022/12/09 12:46:41;;;;;;;;;;;6.60;99.90;;;;;;4961117;28;19933;-79
2022/12/09 12:49:24;;;;;;;;;;;6.60;99.90;;;;;;4972051;28;20414;-78
2022/12/09 12:51:58;;;;;;;;;;;6.60;99.90;;;;;;4958230;28;19926;-79
2022/12/09 12:54:29;;;;;;;;;;;6.60;99.90;;;;;;4991114;28;20012;-77
2022/12/09 12:57:01;;;;;;;;;;;6.50;99.90;;;;;;4955499;28;19937;-77
2022/12/09 12:59:33;;;;;;;;;;;6.60;99.90;;;;;;4956878;28;19934;-78
2022/12/09 13:02:07;;;;;;;;;;;6.70;99.90;;;;;;4986127;28;19940;-79
2022/12/09 13:04:39;;;;;;;;;;;6.80;99.90;;;;;;4963404;28;19938;-78
2022/12/09 13:07:09;;;;;;;;;;;6.80;99.90;;;;;;4961308;28;19929;-79
2022/12/09 13:09:40;;;;;;;;;;;6.80;99.90;;;;;;4953912;28;19989;-78
2022/12/09 13:12:12;;;;;;;;;;;6.80;99.90;;;;;;4976755;28;19926;-79
2022/12/09 13:14:51;;;;;;;;;;;6.80;99.90;;;;;;4955979;28;20048;-79
2022/12/09 13:17:20;;;;;;;;;;;6.90;99.90;;;;;;4957367;28;20392;-79
2022/12/09 13:19:49;;;;;;;;;;;6.90;99.90;;;;;;4974752;28;19926;-78
2022/12/09 13:22:20;;;;;;;;;;;6.90;99.90;;;;;;4974842;28;20264;-79
2022/12/09 13:24:55;;;;;;;;;;;6.90;99.90;;;;;;4964309;28;19973;-81
2022/12/09 13:27:27;;;;;;;;;;;6.90;99.90;;;;;;4956501;28;19945;-81
2022/12/09 13:29:58;;;;;;;;;;;6.90;99.90;;;;;;4960320;28;20380;-79
2022/12/09 13:32:43;;;;;;;;;;;6.90;99.90;;;;;;4959436;28;19930;-80
2022/12/09 13:35:13;;;;;;;;;;;6.80;99.90;;;;;;4940707;28;19953;-79
2022/12/09 13:37:55;;;;;;;;;;;6.70;99.90;;;;;;4985017;28;20350;-77
2022/12/09 13:40:34;;;;;;;;;;;6.70;99.90;;;;;;4969292;28;19926;-77
2022/12/09 13:43:06;;;;;;;;;;;6.70;99.90;;;;;;4956012;28;20053;-78
2022/12/09 13:45:34;;;;;;;;;;;6.50;99.90;;;;;;4961257;28;19930;-79
2022/12/09 13:48:04;;;;;;;;;;;6.40;99.90;;;;;;4973226;28;19954;-78
2022/12/09 13:50:34;;;;;;;;;;;6.20;99.90;;;;;;4962740;28;19930;-79
2022/12/09 13:53:03;;;;;;;;;;;6.10;99.90;;;;;;4963083;28;19926;-79
2022/12/09 13:55:39;;;;;;;;;;;5.80;99.90;;;;;;4959665;28;20247;-79
2022/12/09 13:58:29;;;;;;;;;;;5.70;99.90;;;;;;4974342;28;19937;-77
2022/12/09 14:01:14;;;;;;;;;;;5.50;99.90;;;;;;4950544;28;20379;-78
2022/12/09 14:03:47;;;;;;;;;;;5.30;99.90;;;;;;4965006;28;19941;-78
2022/12/09 14:06:20;;;;;;;;;;;5.20;99.90;;;;;;4961204;28;20070;-78
2022/12/09 14:08:48;;;;;;;;;;;5.10;99.90;;;;;;4958129;28;19938;-79
2022/12/09 14:11:34;;;;;;;;;;;5.00;99.90;;;;;;4963977;28;19930;-79
2022/12/09 14:14:16;;;;;;;;;;;4.90;99.90;;;;;;4952402;28;19930;-79
2022/12/09 14:16:43;;;;;;;;;;;4.70;99.90;;;;;;4963102;28;19969;-79
2022/12/09 14:19:31;;;;;;;;;;;4.70;99.90;;;;;;4962358;28;19989;-79
2022/12/09 14:22:15;;;;;;;;;;;4.60;99.90;;;;;;4958242;28;20024;-77
2022/12/09 14:24:45;;;;;;;;;;;4.40;99.90;;;;;;4958455;28;19932;-79
2022/12/09 14:27:12;;;;;;;;;;;;;;;;;;4975842;28;19970;-78
2022/12/09 14:29:58;;;;;;;;;;;4.20;99.90;;;;;;4964450;28;20044;-79
2022/12/09 14:32:26;;;;;;;;;;;4.20;99.90;;;;;;4969754;28;19934;-79
2022/12/09 14:35:06;;;;;;;;;;;4.10;99.90;;;;;;4964243;28;19956;-78
2022/12/09 14:37:58;;;;;;;;;;;4.10;99.90;;;;;;4976008;28;19934;-78
2022/12/09 14:40:51;;;;;;;;;;;4.00;99.90;;;;;;4981364;28;19930;-79
2022/12/09 14:43:27;;;;;;;;;;;3.90;99.90;;;;;;4958567;28;19930;-76
2022/12/09 14:45:56;;;;;;;;;;;3.80;99.90;;;;;;4959801;28;19933;-77
2022/12/09 14:48:25;;;;;;;;;;;3.80;99.90;;;;;;4961766;28;20024;-77
2022/12/09 14:51:06;;;;;;;;;;;3.70;99.90;;;;;;4959622;28;19927;-77
2022/12/09 14:53:35;;;;;;;;;;;3.70;99.90;;;;;;4984900;28;20020;-78